createdAt,value
2023-03-05T00:01:26.503Z,18.77
2023-03-05T00:03:55.584Z,23.42
2023-03-05T00:06:25.469Z,20.58
2023-03-05T00:08:53.443Z,22.45
2023-03-05T00:11:21.016Z,21.65
2023-03-05T00:13:47.626Z,23.30
2023-03-05T00:16:17.326Z,23.60
2023-03-05T00:18:44.826Z,22.60
2023-03-05T00:21:26.464Z,25.27
2023-03-05T00:23:53.843Z,24.88
2023-03-05T00:26:22.715Z,23.55
2023-03-05T00:28:51.870Z,24.95
2023-03-05T00:31:21.108Z,23.13
2023-03-05T00:33:55.815Z,21.35
2023-03-05T00:36:24.397Z,23.08
2023-03-05T00:38:51.012Z,22.15
2023-03-05T00:41:17.578Z,23.10
2023-03-05T00:43:44.125Z,22.13
2023-03-05T00:46:11.730Z,22.55
2023-03-05T00:48:38.387Z,21.23
2023-03-05T00:51:05.227Z,19.67
2023-03-05T00:53:32.209Z,21.45
2023-03-05T00:55:59.250Z,20.80
2023-03-05T00:58:25.983Z,22.63
2023-03-05T01:00:52.564Z,20.55
2023-03-05T01:03:19.486Z,20.02
2023-03-05T01:05:46.211Z,21.50
2023-03-05T01:08:12.808Z,20.98
2023-03-05T01:10:39.341Z,20.55
2023-03-05T01:13:05.948Z,23.23
2023-03-05T01:15:32.497Z,18.60
2023-03-05T01:17:59.041Z,20.38
2023-03-05T01:20:25.590Z,19.77
2023-03-05T01:22:52.868Z,20.00
2023-03-05T01:25:19.875Z,19.77
2023-03-05T01:27:46.408Z,21.77
2023-03-05T01:30:14.548Z,21.77
2023-03-05T01:32:41.313Z,21.10
2023-03-05T01:35:08.768Z,19.52
2023-03-05T01:37:35.294Z,20.25
2023-03-05T01:40:01.931Z,20.08
2023-03-05T01:42:28.498Z,19.05
2023-03-05T01:45:10.141Z,19.20
2023-03-05T01:47:37.145Z,19.40
2023-03-05T01:50:07.495Z,18.65
2023-03-05T01:52:39.351Z,16.95
2023-03-05T01:55:11.837Z,17.35
2023-03-05T01:57:45.748Z,19.08
2023-03-05T02:00:46.749Z,17.05
2023-03-05T02:03:14.629Z,14.15
2023-03-05T02:05:44.415Z,14.15
2023-03-05T02:08:20.913Z,11.98
2023-03-05T02:10:56.358Z,13.05
2023-03-05T02:13:25.801Z,10.43
2023-03-05T02:15:54.572Z,11.85
2023-03-05T02:18:21.953Z,12.45
2023-03-05T02:20:52.068Z,12.13
2023-03-05T02:23:21.152Z,13.63
2023-03-05T02:25:47.924Z,12.30
2023-03-05T02:28:26.181Z,11.88
2023-03-05T02:30:52.760Z,12.57
2023-03-05T02:33:20.549Z,12.52
2023-03-05T02:35:48.285Z,13.43
2023-03-05T02:38:18.078Z,14.13
2023-03-05T02:40:44.702Z,13.30
2023-03-05T02:43:12.971Z,11.88
2023-03-05T02:45:39.977Z,12.23
2023-03-05T02:48:06.846Z,11.98
2023-03-05T02:50:34.292Z,12.50
2023-03-05T02:53:01.097Z,13.27
2023-03-05T02:55:28.496Z,12.07
2023-03-05T02:57:55.156Z,12.02
2023-03-05T03:00:22.572Z,12.52
2023-03-05T03:02:49.892Z,13.45
2023-03-05T03:05:16.457Z,13.25
2023-03-05T03:07:43.023Z,12.52
2023-03-05T03:10:10.728Z,11.55
2023-03-05T03:12:41.725Z,12.95
2023-03-05T03:15:09.945Z,12.20
2023-03-05T03:17:37.247Z,12.30
2023-03-05T03:20:09.083Z,13.32
2023-03-05T03:25:03.222Z,11.77
2023-03-05T03:27:29.773Z,13.00
2023-03-05T03:29:56.331Z,13.07
2023-03-05T03:32:22.916Z,13.40
2023-03-05T03:34:49.663Z,15.80
2023-03-05T03:37:16.612Z,13.13
2023-03-05T03:39:43.149Z,12.32
2023-03-05T03:42:09.653Z,12.15
2023-03-05T03:44:36.190Z,12.48
2023-03-05T03:47:02.940Z,12.80
2023-03-05T03:49:29.583Z,12.10
2023-03-05T03:51:56.119Z,13.27
2023-03-05T03:54:22.985Z,10.93
2023-03-05T03:56:49.750Z,10.98
2023-03-05T03:59:16.491Z,12.20
2023-03-05T04:01:43.304Z,13.38
2023-03-05T04:04:12.460Z,12.55
2023-03-05T04:06:39.450Z,11.88
2023-03-05T04:09:08.091Z,12.07
2023-03-05T04:11:35.601Z,11.45
2023-03-05T04:14:02.682Z,11.02
2023-03-05T04:16:29.458Z,10.38
2023-03-05T04:18:56.040Z,12.88
2023-03-05T04:21:22.636Z,10.60
2023-03-05T04:23:49.181Z,12.38
2023-03-05T04:26:15.720Z,14.52
2023-03-05T04:28:42.275Z,12.25
2023-03-05T04:31:08.952Z,11.63
2023-03-05T04:33:35.515Z,12.48
2023-03-05T04:36:02.116Z,11.13
2023-03-05T04:38:28.708Z,10.45
2023-03-05T04:40:55.268Z,9.13
2023-03-05T04:43:22.248Z,10.13
2023-03-05T04:45:48.746Z,9.40
2023-03-05T04:48:15.459Z,9.38
2023-03-05T04:50:42.004Z,9.50
2023-03-05T04:53:08.602Z,9.80
2023-03-05T04:55:35.113Z,9.07
2023-03-05T04:58:01.682Z,9.52
2023-03-05T05:00:28.193Z,9.73
2023-03-05T05:02:55.025Z,9.77
2023-03-05T05:05:26.181Z,8.82
2023-03-05T05:07:57.395Z,9.73
2023-03-05T05:10:25.906Z,9.10
2023-03-05T05:12:52.515Z,9.18
2023-03-05T05:15:19.185Z,8.82
2023-03-05T05:17:47.996Z,9.20
2023-03-05T05:20:16.454Z,7.90
2023-03-05T05:22:43.469Z,9.68
2023-03-05T05:25:10.961Z,8.07
2023-03-05T05:27:38.974Z,8.68
2023-03-05T05:30:06.799Z,8.50
2023-03-05T05:32:33.585Z,8.75
2023-03-05T05:35:00.464Z,7.72
2023-03-05T05:37:27.653Z,8.57
2023-03-05T05:39:54.250Z,7.93
2023-03-05T05:42:23.036Z,9.40
2023-03-05T05:44:49.921Z,8.25
2023-03-05T05:47:17.595Z,8.50
2023-03-05T05:49:44.141Z,8.25
2023-03-05T05:52:10.665Z,8.48
2023-03-05T05:54:37.348Z,8.52
2023-03-05T05:57:03.985Z,8.40
2023-03-05T05:59:30.558Z,8.43
2023-03-05T06:01:57.381Z,8.57
2023-03-05T06:04:23.946Z,9.63
2023-03-05T06:06:50.949Z,9.02
2023-03-05T06:09:17.854Z,9.88
2023-03-05T06:11:46.574Z,8.65
2023-03-05T06:14:13.690Z,9.27
2023-03-05T06:16:40.792Z,8.27
2023-03-05T06:19:11.394Z,8.27
2023-03-05T06:21:38.105Z,10.50
2023-03-05T06:24:05.255Z,9.38
2023-03-05T06:26:33.834Z,8.45
2023-03-05T06:29:00.515Z,9.07
2023-03-05T06:31:28.903Z,9.68
2023-03-05T06:33:57.790Z,8.55
2023-03-05T06:36:25.512Z,8.15
2023-03-05T06:38:53.563Z,8.25
2023-03-05T06:41:29.012Z,8.02
2023-03-05T06:43:56.395Z,8.45
2023-03-05T06:46:31.468Z,9.35
2023-03-05T06:49:00.687Z,8.60
2023-03-05T06:51:33.106Z,9.52
2023-03-05T06:54:05.408Z,9.55
2023-03-05T06:56:31.909Z,10.50
2023-03-05T06:58:59.216Z,9.93
2023-03-05T07:01:25.900Z,9.60
2023-03-05T07:03:54.213Z,10.63
2023-03-05T07:06:21.814Z,10.52
2023-03-05T07:08:49.118Z,11.15
2023-03-05T07:11:18.367Z,10.40
2023-03-05T07:13:47.716Z,11.07
2023-03-05T07:16:17.107Z,12.20
2023-03-05T07:18:44.118Z,10.48
2023-03-05T07:21:16.142Z,11.90
2023-03-05T07:23:42.842Z,11.85
2023-03-05T07:26:11.175Z,11.82
2023-03-05T07:28:37.763Z,11.57
2023-03-05T07:31:11.870Z,13.80
2023-03-05T07:33:38.509Z,12.23
2023-03-05T07:36:08.350Z,11.63
2023-03-05T07:38:35.086Z,12.35
2023-03-05T07:41:07.248Z,11.98
2023-03-05T07:43:33.777Z,11.57
2023-03-05T07:46:03.439Z,11.25
2023-03-05T07:48:30.029Z,11.13
2023-03-05T07:51:09.950Z,11.15
2023-03-05T07:53:36.753Z,12.55
2023-03-05T07:56:03.443Z,11.93
2023-03-05T07:58:30.018Z,12.85
2023-03-05T08:00:56.528Z,11.60
2023-03-05T08:03:23.098Z,11.20
2023-03-05T08:05:49.672Z,10.75
2023-03-05T08:08:16.528Z,10.93
2023-03-05T08:10:43.049Z,12.38
2023-03-05T08:13:09.660Z,12.98
2023-03-05T08:15:37.678Z,11.55
2023-03-05T08:18:04.578Z,25.73
2023-03-05T08:20:31.267Z,20.45
2023-03-05T08:22:57.776Z,39.33
2023-03-05T08:25:24.372Z,48.90
2023-03-05T08:27:50.918Z,19.35
2023-03-05T08:30:20.248Z,12.93
2023-03-05T08:32:49.037Z,10.30
2023-03-05T08:35:15.602Z,11.52
2023-03-05T08:37:42.151Z,10.77
2023-03-05T08:40:10.204Z,10.95
2023-03-05T08:42:36.710Z,10.68
2023-03-05T08:45:03.329Z,10.70
2023-03-05T08:47:30.023Z,11.65
2023-03-05T08:49:57.655Z,10.73
2023-03-05T08:52:24.845Z,10.88
2023-03-05T08:54:51.502Z,12.50
2023-03-05T08:57:18.200Z,10.70
2023-03-05T08:59:44.742Z,11.50
2023-03-05T09:02:13.320Z,10.70
2023-03-05T09:04:40.475Z,11.38
2023-03-05T09:07:07.053Z,11.38
2023-03-05T09:09:34.054Z,9.68
2023-03-05T09:12:01.702Z,11.38
2023-03-05T09:14:28.784Z,11.38
2023-03-05T09:16:56.824Z,13.40
2023-03-05T09:19:24.303Z,11.75
2023-03-05T09:21:51.314Z,11.02
2023-03-05T09:24:17.888Z,11.75
2023-03-05T09:26:44.409Z,12.30
2023-03-05T09:29:11.137Z,10.55
2023-03-05T09:31:38.497Z,11.30
2023-03-05T09:34:05.749Z,11.70
2023-03-05T09:36:32.821Z,10.93
2023-03-05T09:38:59.415Z,10.95
2023-03-05T09:41:40.762Z,10.90
2023-03-05T09:44:22.262Z,11.00
2023-03-05T09:47:36.575Z,11.13
2023-03-05T09:50:31.798Z,11.13
2023-03-05T09:53:22.926Z,10.10
2023-03-05T09:55:58.741Z,12.17
2023-03-05T09:58:35.412Z,10.30
2023-03-05T10:01:06.390Z,11.95
2023-03-05T10:03:45.711Z,10.48
2023-03-05T10:06:23.192Z,11.13
2023-03-05T10:08:55.266Z,10.65
2023-03-05T10:11:53.748Z,11.70
2023-03-05T10:14:33.208Z,10.10
2023-03-05T10:17:21.548Z,11.07
2023-03-05T10:19:56.962Z,10.60
2023-03-05T10:22:28.882Z,10.68
2023-03-05T10:25:23.646Z,11.52
2023-03-05T10:27:56.873Z,9.93
2023-03-05T10:30:40.534Z,10.48
2023-03-05T10:33:38.256Z,10.25
2023-03-05T10:36:17.029Z,10.38
2023-03-05T10:39:18.322Z,10.35
2023-03-05T10:41:56.463Z,9.80
2023-03-05T10:44:37.533Z,10.48
2023-03-05T10:47:21.578Z,10.02
2023-03-05T10:49:56.723Z,10.57
2023-03-05T10:52:31.047Z,11.90
2023-03-05T10:54:57.897Z,10.77
2023-03-05T10:57:27.713Z,11.20
2023-03-05T11:00:01.097Z,9.90
2023-03-05T11:02:31.609Z,10.70
2023-03-05T11:04:58.611Z,14.10
2023-03-05T11:07:25.238Z,11.10
2023-03-05T11:10:01.968Z,12.48
2023-03-05T11:12:36.577Z,9.85
2023-03-05T11:15:09.389Z,10.52
2023-03-05T11:17:44.771Z,10.00
2023-03-05T11:20:27.613Z,8.80
2023-03-05T11:23:06.615Z,10.80
2023-03-05T11:25:35.029Z,12.90
2023-03-05T11:28:03.079Z,14.55
2023-03-05T11:30:35.458Z,9.23
2023-03-05T11:33:22.618Z,36.30
2023-03-05T11:36:09.473Z,15.13
2023-03-05T11:38:50.033Z,8.25
2023-03-05T11:41:20.583Z,5.78
2023-03-05T11:43:49.528Z,5.63
2023-03-05T11:46:18.980Z,6.40
2023-03-05T11:48:46.924Z,4.75
2023-03-05T11:51:20.664Z,4.65
2023-03-05T11:53:52.268Z,5.22
2023-03-05T11:56:24.444Z,4.22
2023-03-05T11:59:12.899Z,5.18
2023-03-05T12:01:50.231Z,3.30
2023-03-05T12:04:18.495Z,4.45
2023-03-05T12:06:55.778Z,4.05
2023-03-05T12:09:44.340Z,4.65
2023-03-05T12:13:01.788Z,5.78
2023-03-05T12:15:37.073Z,5.38
2023-03-05T12:18:09.815Z,5.00
2023-03-05T12:21:03.951Z,4.65
2023-03-05T12:23:45.461Z,4.35
2023-03-05T12:26:12.182Z,4.82
2023-03-05T12:28:42.060Z,4.70
2023-03-05T12:31:08.830Z,4.40
2023-03-05T12:33:39.630Z,5.28
2023-03-05T12:36:21.645Z,4.47
2023-03-05T12:38:56.203Z,4.75
2023-03-05T12:41:22.865Z,4.32
2023-03-05T12:44:05.076Z,5.53
2023-03-05T12:46:42.888Z,5.95
2023-03-05T12:49:19.049Z,5.82
2023-03-05T12:51:48.438Z,4.65
2023-03-05T12:54:27.298Z,4.70
2023-03-05T12:56:57.081Z,4.68
2023-03-05T12:59:30.318Z,4.07
2023-03-05T13:02:01.244Z,5.03
2023-03-05T13:04:31.977Z,4.70
2023-03-05T13:07:06.016Z,5.10
2023-03-05T13:09:36.502Z,4.80
2023-03-05T13:12:11.605Z,4.20
2023-03-05T13:14:48.798Z,4.22
2023-03-05T13:17:28.813Z,3.88
2023-03-05T13:19:56.303Z,4.50
2023-03-05T13:22:24.675Z,4.60
2023-03-05T13:25:05.348Z,4.95
2023-03-05T13:27:33.049Z,5.28
2023-03-05T13:29:59.883Z,6.47
2023-03-05T13:32:28.881Z,5.72
2023-03-05T13:34:58.664Z,5.97
2023-03-05T13:37:34.625Z,5.95
2023-03-05T13:40:07.916Z,5.90
2023-03-05T13:42:39.124Z,5.35
2023-03-05T13:45:21.212Z,5.22
2023-03-05T13:48:03.040Z,4.80
2023-03-05T13:53:37.310Z,4.47
2023-03-05T13:56:07.271Z,4.88
2023-03-05T13:58:48.183Z,5.82
2023-03-05T14:01:15.882Z,4.90
2023-03-05T14:03:42.921Z,4.57
2023-03-05T14:06:18.992Z,5.82
2023-03-05T14:08:51.662Z,4.95
2023-03-05T14:11:19.541Z,4.82
2023-03-05T14:13:48.335Z,4.88
2023-03-05T14:16:33.235Z,4.57
2023-03-05T14:19:02.628Z,5.80
2023-03-05T14:21:50.286Z,5.40
2023-03-05T14:24:23.565Z,4.90
2023-03-05T14:26:53.767Z,4.95
2023-03-05T14:29:24.283Z,5.07
2023-03-05T14:32:04.161Z,5.00
2023-03-05T14:34:38.169Z,5.20
2023-03-05T14:37:16.727Z,5.60
2023-03-05T14:39:56.603Z,5.00
2023-03-05T14:42:27.867Z,5.60
2023-03-05T14:44:55.940Z,5.53
2023-03-05T14:47:27.076Z,5.50
2023-03-05T14:49:54.116Z,6.07
2023-03-05T14:52:23.991Z,5.90
2023-03-05T14:54:51.980Z,5.53
2023-03-05T14:57:25.215Z,6.32
2023-03-05T14:59:52.109Z,6.68
2023-03-05T15:02:22.495Z,6.00
2023-03-05T15:04:49.500Z,7.50
2023-03-05T15:07:31.374Z,7.05
2023-03-05T15:12:25.893Z,6.05
2023-03-05T15:14:54.564Z,7.28
2023-03-05T15:17:39.570Z,6.13
2023-03-05T15:20:09.983Z,6.35
2023-03-05T15:22:37.528Z,6.78
2023-03-05T15:25:04.883Z,6.60
2023-03-05T15:27:31.967Z,7.05
2023-03-05T15:29:59.694Z,6.70
2023-03-05T15:32:30.981Z,6.25
2023-03-05T15:34:59.004Z,6.68
2023-03-05T15:37:26.164Z,6.55
2023-03-05T15:39:53.503Z,6.63
2023-03-05T15:42:20.351Z,6.10
2023-03-05T15:44:47.150Z,5.93
2023-03-05T15:47:14.132Z,5.53
2023-03-05T15:49:41.007Z,5.60
2023-03-05T15:52:07.852Z,5.75
2023-03-05T15:54:36.497Z,5.97
2023-03-05T15:57:08.118Z,6.18
2023-03-05T15:59:34.856Z,6.22
2023-03-05T16:02:02.244Z,5.55
2023-03-05T16:04:29.786Z,5.22
2023-03-05T16:06:59.246Z,5.68
2023-03-05T16:09:29.302Z,5.43
2023-03-05T16:11:56.822Z,5.13
2023-03-05T16:14:27.943Z,5.63
2023-03-05T16:16:56.389Z,5.57
2023-03-05T16:19:24.416Z,5.75
2023-03-05T16:21:51.266Z,6.35
2023-03-05T16:24:18.027Z,6.57
2023-03-05T16:26:44.862Z,6.78
2023-03-05T16:29:11.935Z,7.00
2023-03-05T16:31:41.524Z,6.10
2023-03-05T16:34:09.236Z,6.95
2023-03-05T16:36:35.978Z,4.82
2023-03-05T16:39:04.786Z,5.80
2023-03-05T16:41:32.347Z,5.75
2023-03-05T16:43:59.544Z,5.43
2023-03-05T16:46:29.255Z,5.63
2023-03-05T16:48:57.814Z,5.25
2023-03-05T16:51:24.998Z,6.03
2023-03-05T16:53:51.818Z,5.50
2023-03-05T16:56:19.399Z,5.45
2023-03-05T16:58:46.539Z,5.65
2023-03-05T17:01:16.265Z,5.35
2023-03-05T17:03:44.079Z,5.35
2023-03-05T17:06:17.515Z,5.38
2023-03-05T17:08:45.037Z,6.35
2023-03-05T17:11:12.670Z,5.60
2023-03-05T17:13:40.073Z,5.22
2023-03-05T17:16:08.400Z,4.25
2023-03-05T17:18:35.596Z,4.95
2023-03-05T17:21:04.224Z,5.13
2023-03-05T17:23:31.350Z,3.90
2023-03-05T17:25:58.279Z,4.22
2023-03-05T17:28:25.916Z,4.60
2023-03-05T17:30:52.698Z,3.95
2023-03-05T17:33:19.465Z,4.57
2023-03-05T17:35:47.321Z,3.97
2023-03-05T17:38:14.749Z,5.10
2023-03-05T17:40:41.864Z,4.55
2023-03-05T17:43:08.770Z,5.35
2023-03-05T17:45:35.751Z,5.80
2023-03-05T17:48:04.200Z,4.75
2023-03-05T17:50:31.261Z,4.03
2023-03-05T17:52:57.965Z,4.75
2023-03-05T17:55:25.737Z,4.15
2023-03-05T17:57:55.037Z,5.13
2023-03-05T18:00:26.694Z,4.38
2023-03-05T18:02:54.233Z,4.45
2023-03-05T18:05:24.337Z,5.90
2023-03-05T18:07:52.253Z,4.65
2023-03-05T18:10:23.922Z,4.80
2023-03-05T18:12:51.405Z,5.47
2023-03-05T18:15:20.247Z,4.47
2023-03-05T18:17:51.049Z,4.88
2023-03-05T18:20:31.633Z,4.43
2023-03-05T18:23:00.271Z,4.65
2023-03-05T18:25:34.473Z,4.60
2023-03-05T18:28:06.382Z,4.25
2023-03-05T18:30:34.931Z,4.97
2023-03-05T18:33:01.757Z,4.13
2023-03-05T18:35:34.914Z,5.07
2023-03-05T18:38:01.779Z,4.55
2023-03-05T18:40:32.547Z,5.82
2023-03-05T18:43:03.472Z,7.60
2023-03-05T18:45:31.142Z,6.87
2023-03-05T18:48:01.135Z,6.88
2023-03-05T18:50:29.116Z,6.45
2023-03-05T18:52:55.939Z,5.63
2023-03-05T18:55:29.103Z,5.78
2023-03-05T18:57:56.449Z,5.75
2023-03-05T19:00:26.866Z,5.30
2023-03-05T19:02:54.810Z,4.35
2023-03-05T19:05:22.197Z,4.90
2023-03-05T19:07:49.987Z,5.47
2023-03-05T19:10:17.795Z,4.80
2023-03-05T19:13:05.986Z,5.57
2023-03-05T19:15:32.699Z,5.38
2023-03-05T19:18:00.205Z,6.00
2023-03-05T19:20:27.633Z,5.35
2023-03-05T19:22:56.159Z,6.07
2023-03-05T19:25:23.107Z,5.15
2023-03-05T19:27:50.043Z,6.07
2023-03-05T19:30:20.170Z,7.53
2023-03-05T19:32:47.280Z,7.60
2023-03-05T19:35:17.739Z,6.72
2023-03-05T19:37:46.068Z,6.38
2023-03-05T19:40:15.818Z,5.90
2023-03-05T19:42:43.128Z,6.40
2023-03-05T19:45:10.419Z,6.85
2023-03-05T19:47:37.164Z,6.38
2023-03-05T19:50:05.384Z,6.88
2023-03-05T19:52:32.132Z,7.10
2023-03-05T19:55:00.064Z,7.72
2023-03-05T19:57:26.806Z,7.68
2023-03-05T19:59:53.788Z,6.20
2023-03-05T20:02:22.000Z,6.38
2023-03-05T20:04:49.863Z,6.90
2023-03-05T20:07:17.149Z,7.30
2023-03-05T20:09:44.059Z,8.02
2023-03-05T20:12:10.937Z,7.47
2023-03-05T20:14:37.845Z,7.00
2023-03-05T20:17:04.622Z,6.55
2023-03-05T20:19:31.354Z,6.40
2023-03-05T20:21:58.102Z,7.38
2023-03-05T20:24:24.851Z,6.75
2023-03-05T20:26:51.517Z,7.35
2023-03-05T20:29:18.854Z,7.32
2023-03-05T20:31:46.770Z,8.05
2023-03-05T20:34:17.017Z,8.18
2023-03-05T20:36:44.261Z,9.00
2023-03-05T20:39:11.184Z,8.38
2023-03-05T20:41:40.146Z,8.52
2023-03-05T20:44:08.205Z,9.02
2023-03-05T20:46:39.535Z,7.88
2023-03-05T20:49:06.329Z,8.15
2023-03-05T20:51:35.996Z,7.80
2023-03-05T20:54:06.307Z,7.22
2023-03-05T20:56:35.017Z,7.80
2023-03-05T20:59:04.786Z,7.70
2023-03-05T21:01:33.105Z,7.05
2023-03-05T21:04:01.012Z,7.47
2023-03-05T21:06:29.132Z,7.90
2023-03-05T21:08:56.221Z,7.13
2023-03-05T21:11:23.074Z,6.93
2023-03-05T21:13:49.798Z,6.05
2023-03-05T21:16:20.330Z,7.05
2023-03-05T21:18:46.990Z,7.15
2023-03-05T21:21:13.879Z,6.10
2023-03-05T21:23:40.621Z,6.25
2023-03-05T21:26:07.385Z,6.45
2023-03-05T21:28:34.492Z,7.97
2023-03-05T21:31:08.061Z,7.15
2023-03-05T21:33:35.307Z,7.97
2023-03-05T21:36:02.080Z,8.60
2023-03-05T21:38:30.819Z,9.20
2023-03-05T21:40:58.953Z,8.00
2023-03-05T21:43:27.074Z,7.85
2023-03-05T21:45:54.908Z,9.10
2023-03-05T21:48:22.641Z,7.47
2023-03-05T21:50:50.362Z,7.82
2023-03-05T21:53:18.478Z,7.30
2023-03-05T21:56:14.437Z,7.40
2023-03-05T21:58:41.469Z,7.82
2023-03-05T22:01:11.070Z,8.15
2023-03-05T22:03:38.052Z,8.18
2023-03-05T22:06:09.475Z,9.05
2023-03-05T22:08:36.369Z,7.95
2023-03-05T22:11:08.629Z,8.40
2023-03-05T22:13:36.783Z,7.13
2023-03-05T22:16:03.664Z,7.45
2023-03-05T22:18:32.389Z,7.25
2023-03-05T22:20:59.836Z,7.25
2023-03-05T22:23:29.951Z,8.07
2023-03-05T22:25:57.921Z,7.88
2023-03-05T22:28:24.877Z,9.65
2023-03-05T22:30:51.708Z,8.77
2023-03-05T22:33:18.536Z,7.47
2023-03-05T22:35:45.379Z,8.23
2023-03-05T22:38:12.878Z,8.38
2023-03-05T22:40:45.502Z,8.57
2023-03-05T22:43:12.992Z,7.75
2023-03-05T22:45:40.420Z,8.05
2023-03-05T22:48:07.701Z,9.68
2023-03-05T22:50:34.440Z,8.52
2023-03-05T22:53:01.288Z,9.23
2023-03-05T22:55:28.027Z,8.10
2023-03-05T22:57:54.738Z,9.38
2023-03-05T23:00:23.718Z,8.25
2023-03-05T23:02:51.598Z,8.15
2023-03-05T23:05:19.207Z,9.35
2023-03-05T23:07:46.679Z,8.85
2023-03-05T23:10:27.011Z,8.88
2023-03-05T23:12:55.935Z,10.20
2023-03-05T23:15:27.658Z,10.15
2023-03-05T23:20:26.095Z,9.77
2023-03-05T23:22:55.898Z,10.05
2023-03-05T23:25:29.079Z,8.70
2023-03-05T23:27:58.025Z,9.55
2023-03-05T23:30:26.835Z,9.73
2023-03-05T23:33:08.475Z,9.10
2023-03-05T23:35:38.017Z,9.13
2023-03-05T23:38:08.844Z,8.18
2023-03-05T23:40:39.965Z,9.13
2023-03-05T23:43:07.034Z,8.15
2023-03-05T23:45:34.169Z,9.60
2023-03-05T23:48:01.008Z,9.95
2023-03-05T23:50:33.955Z,8.38
2023-03-05T23:53:02.304Z,9.07
2023-03-05T23:55:35.443Z,8.27
2023-03-05T23:58:02.792Z,8.35
